Time;durP1;ratioP1;P1;durP2;ratioP2;P2;SDS_P1;SDS_P2;PMS_P1;PMS_P2;Temp;Humidity;BMP_temperature;BMP_pressure;BME280_temperature;BME280_humidity;BME280_pressure;Samples;Min_cycle;Max_cycle;Signal;HPM_P1;HPM_P2
2022/08/04 00:00:02;;;;;;;5.95;3.90;;;;;;;25.17;67.70;101392.28;6010941;29;20250;-71
2022/08/04 00:03:28;;;;;;;8.80;3.10;;;;;;;25.10;67.82;101394.22;6000466;29;20261;-71
2022/08/04 00:06:59;;;;;;;7.97;4.03;;;;;;;25.16;67.63;101390.59;6001451;29;20701;-70
2022/08/04 00:10:22;;;;;;;7.32;3.70;;;;;;;25.14;67.00;101392.72;6008089;29;20234;-71
2022/08/04 00:13:54;;;;;;;6.35;3.58;;;;;;;25.06;67.74;101392.97;6020420;29;20230;-71
2022/08/04 00:17:19;;;;;;;6.28;4.18;;;;;;;25.03;67.96;101385.13;6018012;29;20234;-71
2022/08/04 00:20:42;;;;;;;8.30;5.18;;;;;;;24.88;68.88;101384.56;6016675;29;20238;-71
2022/08/04 00:24:06;;;;;;;4.47;3.53;;;;;;;24.84;68.60;101376.94;6013825;29;20227;-71
2022/08/04 00:27:28;;;;;;;5.55;3.90;;;;;;;24.89;68.35;101377.97;6011094;29;20609;-71
2022/08/04 00:30:50;;;;;;;9.90;3.35;;;;;;;24.79;68.80;101385.84;6011468;29;20226;-71
2022/08/04 00:34:12;;;;;;;7.70;3.38;;;;;;;24.70;69.04;101380.75;6016375;29;20286;-71
2022/08/04 00:37:34;;;;;;;6.18;3.45;;;;;;;24.69;69.51;101381.81;6016409;29;20317;-71
2022/08/04 00:41:07;;;;;;;4.32;3.03;;;;;;;24.70;69.08;101380.75;6015805;29;20286;-71
2022/08/04 00:44:41;;;;;;;4.70;3.00;;;;;;;24.79;68.13;101380.31;6016640;29;20238;-71
2022/08/04 00:48:16;;;;;;;7.70;2.83;;;;;;;24.66;68.62;101374.81;6012446;29;20726;-70
2022/08/04 00:51:47;;;;;;;9.60;3.25;;;;;;;24.63;68.38;101378.00;6005217;29;20511;-71
2022/08/04 00:55:23;;;;;;;5.65;3.03;;;;;;;24.52;69.07;101378.66;6015063;29;20243;-71
2022/08/04 00:58:59;;;;;;;6.55;2.53;;;;;;;24.56;68.13;101374.41;6013539;29;20601;-71
2022/08/04 01:02:28;;;;;;;4.10;3.53;;;;;;;24.50;68.78;101362.34;6011356;29;20328;-70
2022/08/04 01:06:04;;;;;;;5.20;4.00;;;;;;;24.46;69.06;101363.84;6015210;29;20230;-70
2022/08/04 01:09:41;;;;;;;5.82;3.15;;;;;;;24.49;68.50;101362.56;6013851;29;20238;-71
2022/08/04 01:13:50;;;;;;;7.30;3.63;;;;;;;24.48;68.37;101361.72;6015608;29;20239;-71
2022/08/04 01:17:20;;;;;;;7.57;3.72;;;;;;;24.37;68.97;101356.00;6012175;29;20264;-70
2022/08/04 01:20:48;;;;;;;6.25;3.17;;;;;;;24.38;68.64;101352.19;6012204;29;20242;-72
2022/08/04 01:24:29;;;;;;;6.70;3.45;;;;;;;24.30;68.71;101350.47;6002040;29;20774;-70
2022/08/04 01:28:14;;;;;;;6.65;3.90;;;;;;;24.13;69.89;101352.00;6008021;29;20369;-71
2022/08/04 01:31:46;;;;;;;4.78;3.35;;;;;;;24.22;69.36;101355.41;6006909;29;20235;-71
2022/08/04 01:35:13;;;;;;;4.35;3.58;;;;;;;24.17;69.50;101345.00;6010847;29;20238;-71
2022/08/04 01:38:36;;;;;;;5.00;3.60;;;;;;;24.24;68.46;101342.25;6010170;29;20254;-71
2022/08/04 01:41:58;;;;;;;6.05;2.88;;;;;;;24.27;68.47;101345.41;6010129;29;20238;-71
2022/08/04 01:45:18;;;;;;;5.43;3.05;;;;;;;24.10;69.89;101343.28;6011166;29;20325;-71
2022/08/04 01:48:44;;;;;;;5.70;3.03;;;;;;;24.13;68.11;101340.97;6010008;29;20238;-71
2022/08/04 01:52:09;;;;;;;4.75;2.97;;;;;;;23.98;69.06;101331.19;6010876;29;20258;-72
2022/08/04 01:55:30;;;;;;;4.18;3.78;;;;;;;24.00;69.23;101321.66;6013226;29;20613;-71
2022/08/04 01:58:55;;;;;;;7.00;3.42;;;;;;;23.84;70.59;101322.09;6011095;29;20238;-71
2022/08/04 02:02:16;;;;;;;7.25;3.20;;;;;;;23.87;69.89;101321.66;6011656;29;20231;-71
2022/08/04 02:05:38;;;;;;;6.18;3.60;;;;;;;23.86;70.20;101322.75;6013747;29;20234;-70
2022/08/04 02:09:08;;;;;;;7.22;3.92;;;;;;;23.96;69.42;101319.53;6013008;29;20246;-72
2022/08/04 02:12:48;;;;;;;3.22;2.92;;;;;;;23.93;69.24;101317.22;6012441;29;21582;-71
2022/08/04 02:16:22;;;;;;;4.40;3.75;;;;;;;23.72;71.19;101324.63;6010473;29;20238;-70
2022/08/04 02:20:01;;;;;;;6.38;3.47;;;;;;;23.85;70.03;101318.28;6013217;29;20512;-70
2022/08/04 02:23:30;;;;;;;7.45;6.43;;;;;;;23.58;70.17;101324.81;6009155;29;20507;-71
2022/08/04 02:26:55;;;;;;;5.60;4.45;;;;;;;23.58;70.49;101327.56;6011844;29;20261;-71
2022/08/04 02:30:18;;;;;;;4.80;4.05;;;;;;;23.62;70.82;101318.69;6012614;29;20227;-72
2022/08/04 02:33:42;;;;;;;8.02;6.55;;;;;;;23.60;70.18;101314.44;6011032;29;20313;-70
2022/08/04 02:37:05;;;;;;;6.90;3.45;;;;;;;23.56;70.58;101313.16;6010745;29;20735;-71
2022/08/04 02:40:30;;;;;;;6.95;4.20;;;;;;;23.59;70.33;101315.53;6011190;29;20250;-72
2022/08/04 02:43:54;;;;;;;6.82;4.63;;;;;;;23.39;71.20;101317.38;6009538;29;20238;-70
2022/08/04 02:47:19;;;;;;;5.55;5.07;;;;;;;23.25;71.24;101310.97;6008492;29;20353;-71
2022/08/04 02:50:43;;;;;;;4.53;4.13;;;;;;;23.29;71.47;101309.50;6011694;29;20230;-71
2022/08/04 02:54:05;;;;;;;4.82;4.40;;;;;;;23.35;71.24;101308.69;6018867;29;20370;-71
2022/08/04 02:57:31;;;;;;;7.53;5.03;;;;;;;23.34;71.18;101298.75;6014617;29;20605;-70
2022/08/04 03:00:52;;;;;;;6.75;6.00;;;;;;;23.32;70.74;101305.50;6013344;29;21272;-71
2022/08/04 03:04:27;;;;;;;3.72;3.33;;;;;;;23.30;70.94;101302.09;6019751;29;20229;-71
2022/08/04 03:08:07;;;;;;;8.70;3.72;;;;;;;23.25;71.41;101308.22;6014863;29;20231;-70
2022/08/04 03:11:56;;;;;;;15.18;13.95;;;;;;;23.32;70.90;101305.50;6021891;29;20332;-70
2022/08/04 03:16:08;;;;;;;50.67;46.78;;;;;;;23.14;71.26;101305.22;6013018;29;20796;-71
2022/08/04 03:20:02;;;;;;;6.20;4.38;;;;;;;23.11;71.37;101300.16;6017876;29;20239;-70
2022/08/04 03:23:51;;;;;;;3.85;3.45;;;;;;;23.16;72.12;101314.09;6011938;29;20324;-71
2022/08/04 03:27:48;;;;;;;5.82;3.45;;;;;;;23.32;70.89;101309.09;6011845;29;20234;-72
2022/08/04 03:31:42;;;;;;;3.22;2.97;;;;;;;23.33;70.90;101302.56;6013251;29;20254;-72
2022/08/04 03:35:23;;;;;;;5.43;3.05;;;;;;;23.31;70.70;101303.78;6014960;29;20254;-70
2022/08/04 03:39:14;;;;;;;4.68;3.88;;;;;;;23.24;70.92;101303.75;6001435;29;20357;-70
2022/08/04 03:43:13;;;;;;;6.28;4.03;;;;;;;23.12;71.84;101299.94;6012757;29;20235;-71
2022/08/04 03:46:57;;;;;;;6.88;4.28;;;;;;;22.94;71.71;101303.28;6010145;29;20243;-71
2022/08/04 03:55:21;;;;;;;8.10;4.35;;;;;;;22.75;72.46;101305.94;5992730;29;20238;-70
2022/08/04 03:59:06;;;;;;;5.53;3.75;;;;;;;22.88;72.32;101309.56;6016347;29;20227;-72
2022/08/04 04:03:01;;;;;;;7.05;4.00;;;;;;;22.69;73.04;101309.50;6013444;29;20234;-71
2022/08/04 04:06:47;;;;;;;6.32;3.08;;;;;;;22.59;73.56;101295.28;6012829;29;20237;-71
2022/08/04 04:10:18;;;;;;;5.22;4.20;;;;;;;22.46;73.35;101296.03;6014354;29;20247;-72
2022/08/04 04:13:59;;;;;;;10.52;9.52;;;;;;;22.78;72.51;101292.63;6017238;29;20242;-71
2022/08/04 04:17:45;;;;;;;9.43;8.52;;;;;;;22.90;72.74;101295.63;6010329;29;20340;-70
2022/08/04 04:21:21;;;;;;;4.95;4.13;;;;;;;23.00;72.12;101296.09;6012267;29;20266;-71
2022/08/04 04:25:03;;;;;;;4.20;3.80;;;;;;;23.05;72.04;101296.34;6011012;29;20243;-70
2022/08/04 04:28:43;;;;;;;7.03;3.40;;;;;;;22.82;72.58;101298.56;6013752;29;20349;-70
2022/08/04 04:32:18;;;;;;;6.35;3.90;;;;;;;22.74;73.13;101298.72;6014379;29;20258;-71
2022/08/04 04:35:49;;;;;;;7.32;5.70;;;;;;;23.03;72.34;101296.50;6015879;29;20246;-71
2022/08/04 04:39:20;;;;;;;8.32;5.15;;;;;;;23.18;71.56;101295.50;6012522;29;20269;-70
2022/08/04 04:43:09;;;;;;;4.35;3.85;;;;;;;23.25;71.26;101291.72;6011353;29;20262;-70
2022/08/04 04:46:38;;;;;;;6.40;4.07;;;;;;;23.22;70.99;101285.78;6007368;29;20280;-70
2022/08/04 04:50:09;;;;;;;12.50;5.30;;;;;;;23.25;71.47;101290.84;6010944;29;20230;-71
2022/08/04 04:53:42;;;;;;;6.20;3.90;;;;;;;23.32;70.73;101286.22;6009451;29;20238;-70
2022/08/04 04:57:09;;;;;;;5.97;3.97;;;;;;;23.47;71.18;101286.91;6012230;29;20238;-71
2022/08/04 05:00:47;;;;;;;8.40;3.80;;;;;;;23.38;71.26;101279.91;6009965;29;20322;-72
2022/08/04 05:04:29;;;;;;;6.45;3.47;;;;;;;23.44;70.87;101282.69;6013647;29;20238;-72
2022/08/04 05:08:08;;;;;;;3.63;3.05;;;;;;;23.60;69.67;101279.50;6011663;29;20235;-71
2022/08/04 05:11:48;;;;;;;6.85;4.22;;;;;;;23.35;71.32;101280.31;6012276;29;20514;-71
2022/08/04 05:15:12;;;;;;;8.50;6.60;;;;;;;23.34;71.32;101282.25;6009308;29;20246;-71
2022/08/04 05:18:38;;;;;;;20.17;8.32;;;;;;;23.57;70.71;101276.34;6005606;29;20541;-71
2022/08/04 05:22:04;;;;;;;7.28;3.72;;;;;;;23.69;69.89;101281.00;6006247;29;20246;-72
2022/08/04 05:25:33;;;;;;;8.00;4.85;;;;;;;23.74;70.03;101277.59;6009468;29;20242;-71
2022/08/04 05:28:57;;;;;;;8.32;4.20;;;;;;;23.68;69.81;101279.28;6009764;29;20237;-72
2022/08/04 05:32:22;;;;;;;6.30;4.05;;;;;;;23.98;69.44;101279.72;5999965;29;20342;-71
2022/08/04 05:35:49;;;;;;;6.50;3.55;;;;;;;23.91;69.37;101272.53;6006054;29;20234;-71
2022/08/04 05:39:15;;;;;;;11.50;4.68;;;;;;;23.81;70.10;101276.53;6006738;29;20750;-73
2022/08/04 05:42:40;;;;;;;6.40;4.05;;;;;;;24.22;68.91;101268.03;6009816;29;20231;-73
2022/08/04 05:46:01;;;;;;;9.63;3.95;;;;;;;24.41;67.57;101263.53;6001610;29;20238;-71
2022/08/04 05:49:24;;;;;;;5.50;3.22;;;;;;;24.16;68.78;101257.88;6001137;29;20610;-72
2022/08/04 05:52:49;;;;;;;11.43;4.60;;;;;;;24.08;68.20;101260.00;6009752;29;20258;-73
2022/08/04 05:56:13;;;;;;;8.68;4.20;;;;;;;24.18;68.22;101260.41;5994920;29;20337;-72
2022/08/04 05:59:39;;;;;;;9.23;5.20;;;;;;;24.17;68.46;101258.72;6002512;29;20261;-71
2022/08/04 06:03:02;;;;;;;7.63;4.45;;;;;;;24.44;67.59;101257.59;6000281;29;20242;-72
2022/08/04 06:06:23;;;;;;;7.68;3.97;;;;;;;24.87;66.45;101255.94;6008609;29;20646;-71
2022/08/04 06:09:46;;;;;;;9.05;4.15;;;;;;;24.83;66.30;101260.19;6011472;29;20234;-70
2022/08/04 06:13:11;;;;;;;8.35;3.75;;;;;;;25.03;66.07;101260.94;6005894;29;20313;-71
2022/08/04 06:16:38;;;;;;;7.85;4.60;;;;;;;25.10;65.30;101259.00;6001590;29;20230;-68
2022/08/04 06:20:01;;;;;;;14.95;4.78;;;;;;;25.06;65.69;101259.66;5996105;29;20238;-67
2022/08/04 06:23:25;;;;;;;8.80;4.15;;;;;;;25.00;66.33;101263.31;6009728;29;20223;-67
2022/08/04 06:26:49;;;;;;;8.30;3.95;;;;;;;24.98;65.73;101251.63;6013807;29;20551;-68
2022/08/04 06:30:13;;;;;;;5.65;4.55;;;;;;;24.98;65.89;101241.44;6007572;29;20330;-68
2022/08/04 06:33:36;;;;;;;6.18;3.90;;;;;;;25.13;65.51;101246.66;6010224;29;20246;-68
2022/08/04 06:36:58;;;;;;;6.57;5.10;;;;;;;25.31;65.13;101247.59;6010866;29;20239;-69
2022/08/04 06:40:24;;;;;;;10.20;3.80;;;;;;;25.19;65.24;101243.88;6004580;29;20345;-69
2022/08/04 06:43:46;;;;;;;9.55;4.88;;;;;;;25.41;64.87;101243.50;6013875;29;20804;-69
2022/08/04 06:47:08;;;;;;;12.65;4.53;;;;;;;25.36;65.15;101241.41;6009020;29;20258;-70
2022/08/04 06:50:30;;;;;;;6.57;5.18;;;;;;;25.50;64.70;101233.88;6016694;29;20262;-68
2022/08/04 06:53:51;;;;;;;9.43;3.42;;;;;;;25.71;63.72;101236.25;6013715;29;20242;-67
2022/08/04 06:57:20;;;;;;;6.63;3.72;;;;;;;25.75;63.38;101232.81;6012218;29;20242;-68
2022/08/04 07:00:45;;;;;;;8.43;3.40;;;;;;;25.37;64.04;101232.91;6014488;29;20233;-68
2022/08/04 07:04:07;;;;;;;9.43;4.15;;;;;;;25.65;63.59;101231.66;6016390;29;20238;-70
2022/08/04 07:07:28;;;;;;;5.60;3.50;;;;;;;25.41;64.34;101227.78;6017237;29;20235;-69
2022/08/04 07:10:52;;;;;;;6.47;3.92;;;;;;;25.37;64.29;101224.63;6009967;29;20258;-68
2022/08/04 07:14:14;;;;;;;5.80;3.25;;;;;;;25.74;63.63;101227.53;6010224;29;20234;-68
2022/08/04 07:17:37;;;;;;;7.00;3.13;;;;;;;26.04;62.62;101223.81;6008786;29;20243;-69
2022/08/04 07:20:59;;;;;;;4.63;3.63;;;;;;;26.37;61.77;101226.22;6003321;29;20656;-67
2022/08/04 07:24:20;;;;;;;9.90;3.22;;;;;;;26.24;62.25;101229.16;6017969;29;20262;-68
2022/08/04 07:27:42;;;;;;;5.70;3.58;;;;;;;26.57;61.77;101223.22;6017355;29;20230;-68
2022/08/04 07:31:06;;;;;;;7.65;4.25;;;;;;;26.78;61.06;101220.84;6011462;29;20521;-68
2022/08/04 07:34:29;;;;;;;6.75;3.15;;;;;;;26.82;60.87;101224.00;6016884;29;20226;-68
2022/08/04 07:37:50;;;;;;;6.15;3.22;;;;;;;26.88;60.83;101215.59;6016700;29;20250;-69
2022/08/04 07:41:11;;;;;;;7.63;4.05;;;;;;;26.97;60.58;101224.44;6019941;29;20246;-69
2022/08/04 07:44:34;;;;;;;10.70;5.07;;;;;;;27.06;60.25;101214.69;6021836;29;20357;-68
2022/08/04 07:47:55;;;;;;;11.02;4.40;;;;;;;27.19;60.12;101216.41;6012590;29;20254;-68
2022/08/04 07:51:18;;;;;;;12.30;4.20;;;;;;;27.26;59.51;101217.16;6013776;29;21079;-69
2022/08/04 07:54:40;;;;;;;9.23;3.95;;;;;;;27.44;59.35;101206.03;6006265;29;20250;-68
2022/08/04 07:58:01;;;;;;;7.95;4.32;;;;;;;27.74;58.71;101206.78;6009813;29;20329;-67
2022/08/04 08:01:23;;;;;;;6.53;3.85;;;;;;;27.86;57.82;101202.06;6015217;29;20234;-67
2022/08/04 08:04:46;;;;;;;6.85;3.13;;;;;;;27.91;57.44;101193.03;6011176;29;20229;-67
2022/08/04 08:08:10;;;;;;;9.10;4.35;;;;;;;27.95;56.77;101192.31;6018629;29;20238;-67
2022/08/04 08:11:31;;;;;;;7.35;2.85;;;;;;;27.90;54.90;101203.28;6015282;29;20234;-68
2022/08/04 08:14:52;;;;;;;4.97;3.22;;;;;;;28.10;55.47;101205.72;6021357;29;20613;-68
2022/08/04 08:18:13;;;;;;;9.98;3.60;;;;;;;28.12;54.92;101200.78;6016231;29;20230;-69
2022/08/04 08:21:35;;;;;;;5.70;3.08;;;;;;;28.54;54.30;101193.06;6017384;29;20849;-67
2022/08/04 08:24:58;;;;;;;7.65;3.10;;;;;;;28.62;52.72;101187.16;6019677;29;20242;-67
2022/08/04 08:28:19;;;;;;;6.13;2.60;;;;;;;28.69;51.60;101190.63;6016298;29;20230;-68
2022/08/04 08:31:40;;;;;;;8.93;2.67;;;;;;;29.01;51.56;101180.69;6012137;29;20313;-66
2022/08/04 08:35:01;;;;;;;5.43;2.87;;;;;;;29.19;50.40;101188.84;6024418;29;20772;-69
2022/08/04 08:38:34;;;;;;;4.78;2.65;;;;;;;29.46;49.69;101177.88;6011898;29;20620;-69
2022/08/04 08:42:15;;;;;;;7.25;2.65;;;;;;;29.72;49.43;101177.22;6014183;29;20238;-69
2022/08/04 08:46:05;;;;;;;3.55;2.13;;;;;;;29.85;48.21;101176.91;6016726;29;20238;-68
2022/08/04 08:50:05;;;;;;;7.25;2.42;;;;;;;29.87;48.78;101167.19;6014940;29;20569;-69
2022/08/04 08:53:49;;;;;;;6.13;2.30;;;;;;;29.88;49.11;101168.03;6014437;29;20238;-69
2022/08/04 08:57:29;;;;;;;5.13;2.28;;;;;;;29.81;48.09;101164.59;5999838;29;20239;-68
2022/08/04 09:00:56;;;;;;;6.18;3.67;;;;;;;29.98;47.89;101154.25;6009965;29;20255;-67
2022/08/04 09:04:41;;;;;;;5.90;3.47;;;;;;;30.34;47.53;101150.03;6019454;29;20848;-67
2022/08/04 09:08:20;;;;;;;4.78;2.30;;;;;;;30.61;47.66;101148.13;6010131;29;20258;-68
2022/08/04 09:11:48;;;;;;;4.40;2.70;;;;;;;30.42;46.33;101160.72;6013144;29;20355;-69
2022/08/04 09:15:14;;;;;;;4.03;2.90;;;;;;;30.52;45.71;101158.88;6016005;29;20234;-68
2022/08/04 09:18:42;;;;;;;3.28;2.70;;;;;;;30.73;46.20;101143.25;6015327;29;20245;-69
2022/08/04 09:22:09;;;;;;;6.03;3.20;;;;;;;30.76;44.59;101153.88;6019368;29;20700;-70
2022/08/04 09:25:41;;;;;;;5.50;2.33;;;;;;;30.52;45.75;101153.31;6004801;29;20242;-68
2022/08/04 09:29:08;;;;;;;4.35;3.00;;;;;;;30.87;45.24;101152.94;6006467;29;20242;-68
2022/08/04 09:32:40;;;;;;;5.90;2.60;;;;;;;30.66;44.95;101140.69;6008580;29;20258;-68
2022/08/04 09:36:05;;;;;;;7.13;2.97;;;;;;;30.94;44.93;101139.59;6020889;29;20505;-65
2022/08/04 09:39:34;;;;;;;8.75;2.40;;;;;;;31.15;42.10;101135.06;6018986;29;20239;-67
2022/08/04 09:43:05;;;;;;;3.58;2.70;;;;;;;31.07;42.44;101135.53;6016441;29;20296;-67
2022/08/04 09:46:30;;;;;;;5.57;3.03;;;;;;;31.14;40.50;101137.03;6005743;29;20295;-68
2022/08/04 09:49:57;;;;;;;2.05;1.88;;;;;;;31.24;39.18;101136.25;6005958;29;20662;-68
2022/08/04 09:53:34;;;;;;;4.20;2.60;;;;;;;31.46;39.58;101137.84;6007929;29;20671;-67
2022/08/04 09:57:04;;;;;;;4.05;3.03;;;;;;;31.33;40.60;101132.69;5991709;29;20230;-68
2022/08/04 10:00:29;;;;;;;8.32;2.58;;;;;;;31.48;41.00;101132.00;6016425;29;20230;-68
2022/08/04 10:03:53;;;;;;;3.95;2.92;;;;;;;31.49;40.39;101120.63;6013473;29;20239;-66
2022/08/04 10:07:29;;;;;;;3.30;2.55;;;;;;;31.50;40.83;101124.25;6010469;29;20546;-66
2022/08/04 10:10:59;;;;;;;3.55;2.45;;;;;;;31.95;40.54;101121.75;6017363;29;20242;-68
2022/08/04 10:14:36;;;;;;;4.90;3.58;;;;;;;32.05;40.02;101115.38;6000635;29;20253;-67
2022/08/04 10:18:15;;;;;;;2.60;2.28;;;;;;;31.98;40.90;101112.00;5998224;29;20247;-68
2022/08/04 10:21:52;;;;;;;3.67;3.38;;;;;;;31.94;41.03;101108.91;6011934;29;20235;-67
2022/08/04 10:25:24;;;;;;;3.17;2.72;;;;;;;31.77;40.71;101104.63;6005141;29;20286;-67
2022/08/04 10:28:51;;;;;;;3.65;3.25;;;;;;;32.56;39.68;101113.66;6013881;29;20317;-66
2022/08/04 10:32:17;;;;;;;4.35;2.58;;;;;;;32.45;38.84;101106.31;6012485;29;20235;-66
2022/08/04 10:35:46;;;;;;;4.53;3.80;;;;;;;32.44;39.06;101096.28;6018896;29;20234;-66
2022/08/04 10:39:11;;;;;;;4.18;2.70;;;;;;;32.68;39.12;101109.50;6012679;29;20234;-67
2022/08/04 10:42:37;;;;;;;3.38;2.38;;;;;;;32.76;38.65;101096.91;6016044;29;20714;-66
2022/08/04 10:46:01;;;;;;;5.35;4.03;;;;;;;33.05;37.57;101087.75;6008392;29;20230;-67
2022/08/04 10:49:33;;;;;;;4.00;2.25;;;;;;;33.27;36.74;101081.03;6019552;29;20238;-67
2022/08/04 10:53:02;;;;;;;3.03;2.55;;;;;;;33.13;35.41;101088.31;6010565;29;20243;-68
2022/08/04 10:56:31;;;;;;;4.05;2.30;;;;;;;32.98;35.61;101069.59;6009408;29;20825;-67
2022/08/04 11:00:00;;;;;;;5.00;3.80;;;;;;;33.48;35.80;101065.91;6013541;29;20234;-67
2022/08/04 11:03:24;;;;;;;3.10;2.65;;;;;;;33.69;35.46;101067.56;6005709;29;20230;-66
2022/08/04 11:06:46;;;;;;;4.50;2.58;;;;;;;33.86;33.84;101068.06;6003894;29;20231;-66
2022/08/04 11:10:09;;;;;;;2.67;2.40;;;;;;;33.84;33.12;101048.75;6007224;29;20288;-66
2022/08/04 11:13:37;;;;;;;3.70;2.17;;;;;;;33.77;32.63;101045.41;6023111;29;20245;-66
2022/08/04 11:17:03;;;;;;;2.92;2.63;;;;;;;34.00;32.16;101051.53;6014451;29;20237;-65
2022/08/04 11:20:30;;;;;;;3.08;2.55;;;;;;;34.64;31.11;101035.47;6016783;29;20246;-65
2022/08/04 11:24:04;;;;;;;3.17;2.15;;;;;;;34.43;31.19;101043.16;6009482;29;20258;-67
2022/08/04 11:27:32;;;;;;;4.07;2.40;;;;;;;34.23;30.30;101039.66;6006479;29;20340;-67
2022/08/04 11:30:59;;;;;;;3.95;2.60;;;;;;;34.70;30.39;101041.88;5999540;29;20807;-66
2022/08/04 11:34:23;;;;;;;2.83;2.50;;;;;;;34.63;29.89;101028.19;6006447;29;20238;-66
2022/08/04 11:37:49;;;;;;;3.17;2.40;;;;;;;34.61;30.70;101026.84;6018810;29;20231;-67
2022/08/04 11:41:18;;;;;;;3.85;2.90;;;;;;;34.73;30.19;101032.91;6021371;29;20268;-67
2022/08/04 11:44:46;;;;;;;3.25;2.35;;;;;;;34.99;30.19;101021.19;6018208;29;20809;-67
2022/08/04 11:48:13;;;;;;;3.08;1.98;;;;;;;35.00;30.56;101024.84;6015500;29;20237;-67
2022/08/04 11:51:36;;;;;;;5.55;2.70;;;;;;;34.87;30.92;101022.69;6008114;29;20591;-67
2022/08/04 11:54:58;;;;;;;3.35;2.20;;;;;;;35.25;28.79;101021.81;6018510;29;20230;-67
2022/08/04 11:58:21;;;;;;;4.30;2.13;;;;;;;35.17;28.92;101019.66;6015792;29;20318;-66
2022/08/04 12:01:58;;;;;;;5.50;2.53;;;;;;;35.66;28.92;101016.59;6006967;29;20227;-67
2022/08/04 12:05:24;;;;;;;2.47;2.28;;;;;;;35.71;29.18;101008.13;6018710;29;20776;-68
2022/08/04 12:09:03;;;;;;;3.20;2.33;;;;;;;34.90;28.46;101013.69;6018698;29;20238;-68
2022/08/04 12:12:32;;;;;;;4.50;3.20;;;;;;;35.73;27.85;101014.28;6022423;29;20314;-66
2022/08/04 12:16:02;;;;;;;4.38;2.35;;;;;;;35.76;27.44;101005.22;6014330;29;20241;-67
2022/08/04 12:19:29;;;;;;;2.70;2.13;;;;;;;35.19;28.02;101006.16;6019261;29;20246;-68
2022/08/04 12:22:54;;;;;;;2.40;2.20;;;;;;;35.73;27.31;101009.50;6020667;29;20246;-68
2022/08/04 12:26:23;;;;;;;4.72;2.53;;;;;;;35.81;26.62;101008.00;6006067;29;20242;-67
2022/08/04 12:29:45;;;;;;;2.75;2.28;;;;;;;35.34;27.11;100998.41;6015646;29;20273;-67
2022/08/04 12:33:12;;;;;;;3.95;2.35;;;;;;;36.08;26.03;100991.38;6008481;29;20793;-67
2022/08/04 12:36:38;;;;;;;2.13;1.83;;;;;;;35.10;27.98;100991.94;6008124;29;20621;-67
2022/08/04 12:40:04;;;;;;;3.40;2.17;;;;;;;38.17;24.32;100978.53;6007166;29;20361;-68
2022/08/04 12:43:34;;;;;;;2.95;2.38;;;;;;;39.08;22.36;100988.38;6014790;29;20246;-71
2022/08/04 12:46:57;;;;;;;4.78;2.45;;;;;;;39.91;21.84;100976.13;6007567;29;20238;-68
2022/08/04 12:50:20;;;;;;;3.20;2.20;;;;;;;37.41;24.52;100984.09;6014154;29;20246;-69
2022/08/04 12:53:43;;;;;;;2.33;2.15;;;;;;;36.26;26.06;100978.47;6022074;29;20238;-69
2022/08/04 12:57:06;;;;;;;3.17;2.85;;;;;;;34.91;27.80;100979.75;6016784;29;20268;-69
2022/08/04 13:00:34;;;;;;;5.00;2.47;;;;;;;38.38;23.13;100964.81;6017489;29;20234;-69
2022/08/04 13:03:58;;;;;;;2.22;2.10;;;;;;;40.84;20.64;100967.25;6017898;29;20238;-69
2022/08/04 13:07:20;;;;;;;2.15;2.00;;;;;;;40.52;21.18;100960.09;6024861;29;20940;-68
2022/08/04 13:10:45;;;;;;;2.97;2.78;;;;;;;39.99;21.47;100960.41;6018542;29;20602;-68
2022/08/04 13:14:07;;;;;;;3.85;2.22;;;;;;;36.76;25.27;100952.34;6024304;29;20230;-69
2022/08/04 13:17:45;;;;;;;3.15;2.47;;;;;;;36.73;25.04;100965.06;6012256;29;20234;-69
2022/08/04 13:21:12;;;;;;;3.78;2.75;;;;;;;39.21;22.18;100949.97;6020503;29;20234;-69
2022/08/04 13:24:36;;;;;;;2.75;2.03;;;;;;;37.33;24.51;100957.53;6016039;29;20621;-69
2022/08/04 13:27:59;;;;;;;2.85;2.50;;;;;;;40.62;21.31;100954.94;6020639;29;20238;-69
2022/08/04 13:31:23;;;;;;;2.40;2.20;;;;;;;40.15;20.80;100960.75;6021188;29;20226;-69
2022/08/04 13:34:47;;;;;;;6.25;2.42;;;;;;;40.47;20.96;100948.97;6022245;29;22516;-69
2022/08/04 13:38:11;;;;;;;1.95;1.85;;;;;;;40.44;21.21;100941.97;6019753;29;20605;-70
2022/08/04 13:41:33;;;;;;;3.40;2.33;;;;;;;35.86;26.16;100935.75;6012592;29;20239;-69
2022/08/04 13:44:58;;;;;;;1.95;1.80;;;;;;;34.91;26.94;100925.66;6019939;29;20242;-69
2022/08/04 13:48:19;;;;;;;3.03;2.83;;;;;;;34.71;28.04;100934.28;6015281;29;20290;-69
2022/08/04 13:51:46;;;;;;;3.53;2.33;;;;;;;36.35;25.93;100924.09;6007537;29;20512;-69
2022/08/04 13:55:09;;;;;;;2.50;2.40;;;;;;;38.05;24.11;100929.53;6017505;29;20247;-69
2022/08/04 13:58:32;;;;;;;2.90;2.70;;;;;;;36.17;26.11;100918.50;6008460;29;20329;-68
2022/08/04 14:01:59;;;;;;;8.50;2.63;;;;;;;35.48;27.54;100906.00;6015018;29;20234;-69
2022/08/04 14:05:23;;;;;;;6.95;2.65;;;;;;;36.97;25.60;100907.88;6016775;29;20242;-69
2022/08/04 14:08:52;;;;;;;2.95;2.00;;;;;;;36.90;26.12;100901.81;6017283;29;20238;-70
2022/08/04 14:12:15;;;;;;;4.30;2.47;;;;;;;37.40;25.92;100906.47;6010721;29;20608;-70
2022/08/04 14:15:38;;;;;;;5.43;2.47;;;;;;;37.10;25.56;100902.25;6014366;29;20593;-70
2022/08/04 14:19:01;;;;;;;3.65;1.80;;;;;;;36.68;26.08;100894.03;6021640;29;20331;-68
2022/08/04 14:22:34;;;;;;;2.30;2.10;;;;;;;36.78;26.24;100879.78;6012530;29;20313;-70
2022/08/04 14:25:57;;;;;;;3.42;1.98;;;;;;;37.63;25.54;100888.50;6005615;29;20242;-69
2022/08/04 14:29:18;;;;;;;2.25;2.05;;;;;;;37.32;25.46;100885.47;6009332;29;20807;-69
2022/08/04 14:32:54;;;;;;;1.95;1.85;;;;;;;37.01;25.68;100880.81;5998119;29;20757;-69
2022/08/04 14:36:17;;;;;;;2.50;2.30;;;;;;;36.31;26.32;100894.09;6017863;29;20234;-67
2022/08/04 14:39:40;;;;;;;5.85;2.22;;;;;;;35.20;27.25;100899.28;6014096;29;20550;-69
2022/08/04 14:43:03;;;;;;;2.58;2.38;;;;;;;34.55;29.01;100899.94;6020853;29;20229;-69
2022/08/04 14:46:27;;;;;;;3.60;2.60;;;;;;;34.47;28.69;100903.34;6014011;29;20681;-69
2022/08/04 14:49:55;;;;;;;2.42;2.00;;;;;;;34.31;28.94;100888.66;6023838;29;20270;-69
2022/08/04 14:53:18;;;;;;;3.83;2.58;;;;;;;34.17;32.67;100912.03;6018347;29;20233;-70
2022/08/04 14:56:40;;;;;;;4.93;2.55;;;;;;;33.85;35.05;100920.88;6019629;29;20238;-70
2022/08/04 15:00:02;;;;;;;4.50;2.42;;;;;;;33.43;37.89;100926.94;6017995;29;20242;-70
2022/08/04 15:03:24;;;;;;;5.40;2.92;;;;;;;32.94;40.59;100965.06;6012462;29;20776;-70
2022/08/04 15:06:47;;;;;;;4.60;3.00;;;;;;;32.81;41.85;100977.66;6013290;29;20243;-70
2022/08/04 15:10:08;;;;;;;3.97;3.58;;;;;;;32.31;45.49;100989.56;6012861;29;21898;-70
2022/08/04 15:13:30;;;;;;;6.20;4.25;;;;;;;31.51;50.68;100995.72;6002929;29;20246;-70
2022/08/04 15:16:56;;;;;;;9.07;4.28;;;;;;;31.07;52.25;100982.31;6019175;29;20238;-71
2022/08/04 15:20:17;;;;;;;6.60;4.25;;;;;;;30.67;53.64;100974.47;6015859;29;20247;-70
2022/08/04 15:23:38;;;;;;;7.57;4.00;;;;;;;30.51;53.42;100961.53;6021282;29;20540;-69
2022/08/04 15:27:01;;;;;;;9.57;4.05;;;;;;;30.14;53.95;100985.63;5998993;29;20641;-71
2022/08/04 15:30:22;;;;;;;8.10;4.43;;;;;;;29.96;53.53;101011.84;6017558;29;20265;-67
2022/08/04 15:33:45;;;;;;;6.43;4.20;;;;;;;30.16;52.26;101025.16;6020659;29;20234;-71
2022/08/04 15:37:07;;;;;;;10.25;3.50;;;;;;;29.97;52.23;101027.44;6011863;29;20486;-70
2022/08/04 15:40:30;;;;;;;11.90;3.60;;;;;;;29.84;52.06;101020.34;6022598;29;20230;-69
2022/08/04 15:44:12;;;;;;;8.05;3.75;;;;;;;29.47;52.02;101038.72;6013609;29;21877;-69
2022/08/04 15:47:33;;;;;;;11.18;6.72;;;;;;;29.39;51.95;101054.97;6009024;29;20234;-72
2022/08/04 15:51:04;;;;;;;161.57;145.35;;;;;;;29.34;51.65;101097.41;6012237;29;20356;-73
2022/08/04 15:54:24;;;;;;;1040.50;875.40;;;;;;;29.05;51.40;101157.75;6020964;29;20242;-68
2022/08/04 15:58:07;;;;;;;140.40;126.65;;;;;;;28.40;53.14;101240.50;6008813;29;20663;-65
2022/08/04 16:01:28;;;;;;;353.50;318.95;;;;;;;27.41;57.47;101318.13;6006969;29;23021;-69
2022/08/04 16:04:49;;;;;;;228.20;206.38;;;;;;;26.36;62.18;101396.00;6013364;29;20276;-72
2022/08/04 16:08:14;;;;;;;7.53;5.53;;;;;;;25.65;62.43;101411.19;6017525;29;20238;-70
2022/08/04 16:11:40;;;;;;;7.60;4.25;;;;;;;23.72;72.53;101410.00;6017541;29;20621;-68